createdAt,value
2023-03-24T00:02:09.700Z,522.00
2023-03-24T00:06:09.757Z,518.00
2023-03-24T00:10:09.906Z,521.00
2023-03-24T00:14:09.965Z,516.00
2023-03-24T00:18:10.086Z,512.00
2023-03-24T00:22:10.168Z,514.00
2023-03-24T00:26:10.279Z,514.00
2023-03-24T00:30:10.381Z,504.00
2023-03-24T00:34:10.474Z,508.00
2023-03-24T00:38:11.348Z,505.00
2023-03-24T00:42:10.364Z,511.00
2023-03-24T00:46:10.293Z,509.00
2023-03-24T00:50:10.221Z,505.00
2023-03-24T00:54:10.130Z,507.00
2023-03-24T00:58:10.143Z,511.00
2023-03-24T01:02:10.043Z,511.00
2023-03-24T01:06:09.934Z,506.00
2023-03-24T01:10:09.881Z,507.00
2023-03-24T01:14:09.988Z,506.00
2023-03-24T01:18:09.826Z,509.00
2023-03-24T01:22:09.714Z,505.00
2023-03-24T01:26:09.662Z,505.00
2023-03-24T01:30:09.694Z,506.00
2023-03-24T01:34:09.794Z,499.00
2023-03-24T01:38:09.810Z,499.00
2023-03-24T01:42:09.831Z,504.00
2023-03-24T01:46:09.916Z,500.00
2023-03-24T01:50:09.890Z,503.00
2023-03-24T01:54:09.929Z,502.00
2023-03-24T01:58:09.985Z,500.00
2023-03-24T02:02:09.997Z,492.00
2023-03-24T02:06:10.070Z,496.00
2023-03-24T02:10:10.164Z,491.00
2023-03-24T02:14:10.274Z,496.00
2023-03-24T02:18:10.339Z,499.00
2023-03-24T02:22:10.292Z,497.00
2023-03-24T02:26:10.270Z,497.00
2023-03-24T02:30:10.250Z,493.00
2023-03-24T02:34:10.208Z,490.00
2023-03-24T02:38:10.215Z,490.00
2023-03-24T02:42:10.180Z,492.00
2023-03-24T02:46:10.174Z,492.00
2023-03-24T02:50:10.278Z,492.00
2023-03-24T02:54:10.140Z,491.00
2023-03-24T02:58:10.129Z,494.00
2023-03-24T03:02:10.104Z,493.00
2023-03-24T03:06:10.095Z,491.00
2023-03-24T03:10:10.069Z,493.00
2023-03-24T03:14:10.035Z,488.00
2023-03-24T03:18:10.050Z,488.00
2023-03-24T03:22:09.996Z,489.00
2023-03-24T03:26:09.962Z,488.00
2023-03-24T03:30:09.970Z,489.00
2023-03-24T03:34:09.933Z,488.00
2023-03-24T03:38:09.915Z,488.00
2023-03-24T03:42:09.879Z,483.00
2023-03-24T03:46:09.898Z,483.00
2023-03-24T03:50:09.879Z,488.00
2023-03-24T03:54:09.866Z,490.00
2023-03-24T03:58:09.833Z,486.00
2023-03-24T04:02:09.840Z,485.00
2023-03-24T04:06:09.810Z,481.00
2023-03-24T04:10:09.755Z,485.00
2023-03-24T04:14:09.733Z,489.00
2023-03-24T04:18:09.741Z,491.00
2023-03-24T04:22:09.701Z,488.00
2023-03-24T04:26:09.714Z,483.00
2023-03-24T04:30:09.671Z,490.00
2023-03-24T04:34:09.667Z,486.00
2023-03-24T04:38:09.722Z,484.00
2023-03-24T04:42:09.704Z,490.00
2023-03-24T04:46:09.782Z,491.00
2023-03-24T04:50:09.683Z,490.00
2023-03-24T04:54:09.700Z,492.00
2023-03-24T04:58:09.737Z,493.00
2023-03-24T05:02:09.708Z,495.00
2023-03-24T05:06:09.726Z,497.00
2023-03-24T05:10:09.788Z,491.00
2023-03-24T05:14:09.741Z,485.00
2023-03-24T05:18:09.795Z,487.00
2023-03-24T05:22:09.770Z,495.00
2023-03-24T05:26:09.785Z,485.00
2023-03-24T05:30:09.808Z,491.00
2023-03-24T05:34:09.772Z,492.00
2023-03-24T05:38:09.806Z,488.00
2023-03-24T05:42:09.762Z,488.00
2023-03-24T05:46:09.808Z,488.00
2023-03-24T05:50:09.796Z,483.00
2023-03-24T05:54:09.779Z,482.00
2023-03-24T05:58:09.836Z,484.00
2023-03-24T06:02:09.893Z,486.00
2023-03-24T06:06:09.831Z,483.00
2023-03-24T06:10:09.856Z,479.00
2023-03-24T06:14:09.891Z,485.00
2023-03-24T06:18:09.868Z,484.00
2023-03-24T06:22:09.888Z,485.00
2023-03-24T06:26:09.913Z,483.00
2023-03-24T06:30:09.954Z,483.00
2023-03-24T06:34:09.977Z,484.00
2023-03-24T06:38:09.928Z,479.00
2023-03-24T06:42:09.988Z,505.00
2023-03-24T06:46:10.035Z,625.00
2023-03-24T06:50:10.005Z,740.00
2023-03-24T06:54:10.053Z,779.00
2023-03-24T06:58:09.920Z,768.00
2023-03-24T07:02:10.547Z,778.00
2023-03-24T07:06:10.201Z,795.00
2023-03-24T07:10:18.940Z,786.00
2023-03-24T07:14:11.045Z,776.00
2023-03-24T07:18:10.874Z,785.00
2023-03-24T07:22:11.051Z,799.00
2023-03-24T07:26:11.308Z,840.00
2023-03-24T07:30:11.582Z,895.00
2023-03-24T07:34:11.462Z,924.00
2023-03-24T07:38:11.416Z,983.00
2023-03-24T07:42:12.988Z,996.00
2023-03-24T07:46:11.575Z,1093.00
2023-03-24T07:50:11.522Z,1068.00
2023-03-24T07:54:11.554Z,1106.00
2023-03-24T07:58:11.352Z,1169.00
2023-03-24T08:02:11.570Z,1107.00
2023-03-24T08:06:11.495Z,1094.00
2023-03-24T08:10:11.540Z,1159.00
2023-03-24T08:14:11.532Z,1254.00
2023-03-24T08:18:12.594Z,1239.00
2023-03-24T08:22:11.766Z,1294.00
2023-03-24T08:26:11.656Z,1347.00
2023-03-24T08:30:11.616Z,1390.00
2023-03-24T08:34:11.504Z,1303.00
2023-03-24T08:38:11.576Z,1308.00
2023-03-24T08:42:11.553Z,1224.00
2023-03-24T08:46:13.903Z,1039.00
2023-03-24T08:50:11.531Z,1134.00
2023-03-24T08:54:11.140Z,1138.00
2023-03-24T08:58:11.565Z,1053.00
2023-03-24T09:02:11.000Z,1042.00
2023-03-24T09:06:10.923Z,971.00
2023-03-24T09:10:10.902Z,987.00
2023-03-24T09:14:11.047Z,951.00
2023-03-24T09:18:10.722Z,947.00
2023-03-24T09:22:10.669Z,937.00
2023-03-24T09:26:10.593Z,956.00
2023-03-24T09:30:10.578Z,921.00
2023-03-24T09:34:10.437Z,984.00
2023-03-24T09:38:10.313Z,973.00
2023-03-24T09:42:10.571Z,1003.00
2023-03-24T09:46:10.713Z,1030.00
2023-03-24T09:50:10.561Z,911.00
2023-03-24T09:54:10.269Z,904.00
2023-03-24T09:58:10.342Z,886.00
2023-03-24T10:02:10.570Z,900.00
2023-03-24T10:06:10.580Z,934.00
2023-03-24T10:10:10.732Z,964.00
2023-03-24T10:14:10.618Z,970.00
2023-03-24T10:18:10.680Z,992.00
2023-03-24T10:22:10.455Z,1020.00
2023-03-24T10:26:10.378Z,1054.00
2023-03-24T10:30:10.294Z,1076.00
2023-03-24T10:34:10.211Z,1058.00
2023-03-24T10:38:10.624Z,1016.00
2023-03-24T10:42:10.039Z,1053.00
2023-03-24T10:46:10.099Z,1104.00
2023-03-24T10:50:14.186Z,1169.00
2023-03-24T10:54:11.087Z,1230.00
2023-03-24T10:58:09.615Z,1293.00
2023-03-24T11:02:09.677Z,1277.00
2023-03-24T11:06:10.084Z,1281.00
2023-03-24T11:10:10.126Z,1230.00
2023-03-24T11:14:09.841Z,1251.00
2023-03-24T11:18:09.878Z,1282.00
2023-03-24T11:22:10.169Z,1248.00
2023-03-24T11:26:09.898Z,1296.00
2023-03-24T11:30:10.118Z,1261.00
2023-03-24T11:34:09.895Z,1276.00
2023-03-24T11:38:10.146Z,1321.00
2023-03-24T11:42:10.114Z,1396.00
2023-03-24T11:46:10.149Z,1458.00
2023-03-24T11:50:09.698Z,1488.00
2023-03-24T11:54:10.106Z,1520.00
2023-03-24T11:58:09.519Z,1515.00
2023-03-24T12:02:09.606Z,1532.00
2023-03-24T12:06:09.394Z,1455.00
2023-03-24T12:10:09.339Z,1451.00
2023-03-24T12:14:09.676Z,1450.00
2023-03-24T12:18:09.182Z,1368.00
2023-03-24T12:22:09.156Z,1338.00
2023-03-24T12:26:09.134Z,1349.00
2023-03-24T12:30:09.145Z,1379.00
2023-03-24T12:34:08.677Z,1113.00
2023-03-24T12:38:08.620Z,1148.00
2023-03-24T12:42:08.571Z,1099.00
2023-03-24T12:46:08.569Z,1046.00
2023-03-24T12:50:08.511Z,1002.00
2023-03-24T12:54:08.469Z,983.00
2023-03-24T12:58:08.656Z,982.00
2023-03-24T13:02:08.511Z,920.00
2023-03-24T13:06:16.848Z,864.00
2023-03-24T13:10:09.455Z,830.00
2023-03-24T13:14:08.354Z,804.00
2023-03-24T13:18:09.444Z,791.00
2023-03-24T13:22:08.298Z,778.00
2023-03-24T13:26:08.330Z,747.00
2023-03-24T13:30:09.181Z,731.00
2023-03-24T13:34:08.423Z,716.00
2023-03-24T13:38:08.608Z,678.00
2023-03-24T13:42:08.594Z,672.00
2023-03-24T13:46:09.305Z,654.00
2023-03-24T13:50:08.657Z,652.00
2023-03-24T13:54:08.682Z,638.00
2023-03-24T13:58:08.701Z,612.00
2023-03-24T14:02:08.738Z,568.00
2023-03-24T14:06:09.592Z,546.00
2023-03-24T14:10:08.995Z,532.00
2023-03-24T14:14:08.908Z,522.00
2023-03-24T14:18:08.777Z,524.00
2023-03-24T14:22:08.717Z,533.00
2023-03-24T14:26:08.575Z,549.00
2023-03-24T14:30:08.464Z,560.00
2023-03-24T14:34:08.365Z,566.00
2023-03-24T14:38:08.242Z,572.00
2023-03-24T14:42:08.144Z,580.00
2023-03-24T14:46:08.138Z,589.00
2023-03-24T14:50:07.973Z,597.00
2023-03-24T14:54:07.902Z,656.00
2023-03-24T14:58:07.803Z,674.00
2023-03-24T15:02:07.791Z,684.00
2023-03-24T15:06:07.641Z,681.00
2023-03-24T15:10:07.518Z,678.00
2023-03-24T15:14:07.424Z,676.00
2023-03-24T15:18:07.370Z,670.00
2023-03-24T15:22:07.286Z,670.00
2023-03-24T15:26:07.316Z,674.00
2023-03-24T15:30:07.324Z,668.00
2023-03-24T15:34:07.379Z,670.00
2023-03-24T15:38:07.408Z,665.00
2023-03-24T15:42:07.415Z,659.00
2023-03-24T15:46:12.550Z,658.00
2023-03-24T15:50:08.365Z,653.00
2023-03-24T15:54:07.270Z,648.00
2023-03-24T15:58:07.168Z,649.00
2023-03-24T16:02:07.079Z,646.00
2023-03-24T16:06:07.082Z,646.00
2023-03-24T16:10:07.154Z,643.00
2023-03-24T16:14:07.209Z,642.00
2023-03-24T16:18:07.284Z,641.00
2023-03-24T16:22:07.325Z,642.00
2023-03-24T16:26:07.364Z,640.00
2023-03-24T16:30:07.446Z,638.00
2023-03-24T16:34:07.474Z,640.00
2023-03-24T16:38:07.560Z,633.00
2023-03-24T16:42:07.650Z,629.00
2023-03-24T16:46:07.714Z,623.00
2023-03-24T16:50:07.724Z,630.00
2023-03-24T16:54:07.814Z,632.00
2023-03-24T16:58:07.870Z,627.00
2023-03-24T17:02:07.942Z,633.00
2023-03-24T17:06:08.022Z,632.00
2023-03-24T17:10:08.129Z,630.00
2023-03-24T17:14:08.184Z,626.00
2023-03-24T17:18:08.318Z,624.00
2023-03-24T17:22:08.331Z,622.00
2023-03-24T17:26:08.414Z,623.00
2023-03-24T17:30:08.493Z,626.00
2023-03-24T17:34:20.578Z,615.00
2023-03-24T17:38:09.482Z,606.00
2023-03-24T17:42:08.436Z,606.00
2023-03-24T17:46:08.353Z,604.00
2023-03-24T17:50:08.265Z,604.00
2023-03-24T17:54:08.355Z,604.00
2023-03-24T17:58:08.524Z,601.00
2023-03-24T18:02:08.635Z,599.00
2023-03-24T18:06:08.784Z,613.00
2023-03-24T18:10:08.879Z,615.00
2023-03-24T18:14:09.099Z,613.00
2023-03-24T18:18:09.149Z,612.00
2023-03-24T18:22:09.287Z,621.00
2023-03-24T18:26:09.432Z,622.00
2023-03-24T18:30:09.576Z,617.00
2023-03-24T18:34:09.698Z,615.00
2023-03-24T18:38:09.874Z,618.00
2023-03-24T18:42:09.974Z,614.00
2023-03-24T18:46:10.223Z,612.00
2023-03-24T18:50:10.301Z,608.00
2023-03-24T18:54:10.493Z,601.00
2023-03-24T18:58:10.352Z,600.00
2023-03-24T19:02:10.302Z,605.00
2023-03-24T19:06:10.200Z,601.00
2023-03-24T19:10:10.140Z,595.00
2023-03-24T19:14:10.040Z,600.00
2023-03-24T19:18:10.052Z,592.00
2023-03-24T19:22:09.892Z,588.00
2023-03-24T19:26:09.853Z,589.00
2023-03-24T19:30:09.790Z,592.00
2023-03-24T19:34:09.851Z,592.00
2023-03-24T19:38:09.823Z,591.00
2023-03-24T19:42:09.745Z,587.00
2023-03-24T19:46:09.722Z,589.00
2023-03-24T19:50:09.569Z,589.00
2023-03-24T19:54:09.518Z,586.00
2023-03-24T19:58:09.394Z,586.00
2023-03-24T20:02:09.381Z,582.00
2023-03-24T20:06:09.259Z,585.00
2023-03-24T20:10:09.165Z,584.00
2023-03-24T20:14:09.063Z,586.00
2023-03-24T20:18:08.989Z,586.00
2023-03-24T20:22:08.940Z,595.00
2023-03-24T20:26:09.314Z,589.00
2023-03-24T20:30:08.767Z,588.00
2023-03-24T20:34:08.679Z,588.00
2023-03-24T20:38:08.620Z,581.00
2023-03-24T20:42:08.530Z,586.00
2023-03-24T20:46:08.508Z,592.00
2023-03-24T20:50:08.369Z,591.00
2023-03-24T20:54:08.286Z,584.00
2023-03-24T20:58:08.293Z,581.00
2023-03-24T21:02:08.407Z,585.00
2023-03-24T21:06:08.454Z,581.00
2023-03-24T21:10:08.627Z,582.00
2023-03-24T21:14:08.791Z,584.00
2023-03-24T21:18:08.922Z,581.00
2023-03-24T21:22:09.089Z,578.00
2023-03-24T21:26:09.211Z,580.00
2023-03-24T21:30:09.302Z,582.00
2023-03-24T21:34:09.504Z,579.00
2023-03-24T21:38:09.660Z,584.00
2023-03-24T21:42:09.738Z,587.00
2023-03-24T21:46:09.903Z,585.00
2023-03-24T21:50:09.916Z,578.00
2023-03-24T21:54:09.936Z,584.00
2023-03-24T21:58:09.941Z,578.00
2023-03-24T22:02:10.002Z,577.00
2023-03-24T22:06:10.022Z,571.00
2023-03-24T22:10:10.059Z,570.00
2023-03-24T22:14:10.380Z,572.00
2023-03-24T22:18:10.169Z,569.00
2023-03-24T22:22:10.193Z,568.00
2023-03-24T22:26:10.330Z,572.00
2023-03-24T22:30:10.405Z,574.00
2023-03-24T22:34:10.406Z,572.00
2023-03-24T22:38:10.491Z,571.00
2023-03-24T22:42:10.562Z,572.00
2023-03-24T22:46:10.735Z,568.00
2023-03-24T22:50:10.728Z,564.00
2023-03-24T22:54:10.812Z,567.00
2023-03-24T22:58:10.908Z,569.00
2023-03-24T23:02:11.055Z,570.00
2023-03-24T23:06:11.117Z,560.00
2023-03-24T23:10:11.218Z,566.00
2023-03-24T23:14:11.302Z,566.00
2023-03-24T23:18:11.361Z,563.00
2023-03-24T23:22:11.461Z,566.00
2023-03-24T23:26:11.560Z,565.00
2023-03-24T23:30:11.720Z,569.00
2023-03-24T23:34:11.808Z,566.00
2023-03-24T23:38:11.833Z,564.00
2023-03-24T23:42:11.920Z,555.00
2023-03-24T23:46:12.000Z,559.00
2023-03-24T23:50:12.067Z,558.00
2023-03-24T23:54:12.140Z,555.00
2023-03-24T23:58:12.127Z,554.00
